Raymondville, Texas
Current Conditions -  °F | °C
As of 5:52 AM on Tuesday 27 Jan 2015 (Local Time) from KHRL Reporting Station
Clear Clear  
Wind Chill: 10°   Ceiling: Unl
Heat Index: 10°   Visibility: 10mi
Dew Point:   Wind: 6mph
Humidity: 83%   Direction: 210°SSW
Pressure: 30.19"   Gusts: NA
Location:  26.48°N, 97.78°W
Report Text: KHRL 271152Z 21005KT 10SM CLR 10/07 A3019 RMK AO2 SLP221 T01000072 10139 20100 55005
Loading
Personal Weather Stations






























Interactive Weather Map New forecast layout! Learn more

10-Day Weather Forecast

Advertisements
Track Severe Weather on mobile